Time;durP1;ratioP1;P1;durP2;ratioP2;P2;SDS_P1;SDS_P2;PMS_P1;PMS_P2;Temp;Humidity;BMP_temperature;BMP_pressure;BME280_temperature;BME280_humidity;BME280_pressure;Samples;Min_cycle;Max_cycle;Signal;HPM_P1;HPM_P2
2023/08/26 00:02:19;;;;;;;2.78;1.90;;;30.20;54.40;;;;;;5131113;28;20030;-62
2023/08/26 00:04:45;;;;;;;3.10;2.10;;;30.20;54.50;;;;;;5133652;28;20942;-62
2023/08/26 00:07:11;;;;;;;3.10;2.10;;;30.20;54.50;;;;;;5133361;28;20034;-64
2023/08/26 00:09:36;;;;;;;2.45;1.92;;;30.10;54.50;;;;;;5130349;28;20520;-62
2023/08/26 00:12:02;;;;;;;2.83;2.15;;;30.10;54.50;;;;;;5132141;28;20043;-63
2023/08/26 00:14:28;;;;;;;2.72;2.00;;;30.10;54.50;;;;;;5125293;28;20030;-64
2023/08/26 00:16:53;;;;;;;2.83;1.90;;;30.10;54.60;;;;;;5131889;28;20038;-64
2023/08/26 00:19:20;;;;;;;2.28;1.90;;;30.10;54.60;;;;;;5131059;28;20042;-64
2023/08/26 00:21:46;;;;;;;3.03;2.10;;;30.00;54.60;;;;;;5133433;28;20092;-64
2023/08/26 00:24:12;;;;;;;3.28;2.03;;;30.00;54.60;;;;;;5132216;28;20015;-63
2023/08/26 00:26:38;;;;;;;2.78;2.10;;;30.00;54.70;;;;;;5132651;28;20045;-63
2023/08/26 00:29:03;;;;;;;2.53;1.95;;;29.90;54.60;;;;;;5134640;27;20047;-63
2023/08/26 00:31:29;;;;;;;2.72;1.80;;;29.90;54.70;;;;;;5135799;27;20038;-64
2023/08/26 00:33:55;;;;;;;2.90;1.98;;;29.90;54.70;;;;;;5135121;27;20051;-64
2023/08/26 00:36:20;;;;;;;2.30;1.83;;;29.90;54.80;;;;;;5134923;27;20038;-64
2023/08/26 00:38:46;;;;;;;3.00;1.90;;;29.90;54.80;;;;;;5134008;27;20020;-63
2023/08/26 00:41:12;;;;;;;2.95;2.10;;;29.80;54.80;;;;;;5134858;27;20534;-63
2023/08/26 00:43:37;;;;;;;2.63;1.90;;;29.80;54.80;;;;;;5135309;27;20076;-63
2023/08/26 00:46:03;;;;;;;2.78;1.95;;;29.80;54.90;;;;;;5134413;27;20048;-64
2023/08/26 00:48:29;;;;;;;2.70;1.90;;;29.80;54.90;;;;;;5135553;27;20031;-63
2023/08/26 00:50:55;;;;;;;2.63;1.98;;;29.80;55.00;;;;;;5132264;27;20114;-63
2023/08/26 00:53:22;;;;;;;2.67;1.90;;;29.80;55.00;;;;;;5133606;27;20102;-64
2023/08/26 00:55:48;;;;;;;2.70;1.90;;;29.70;54.90;;;;;;5135116;27;20023;-64
2023/08/26 00:58:15;;;;;;;2.25;1.73;;;29.70;55.00;;;;;;5134821;27;20020;-63
2023/08/26 01:00:42;;;;;;;2.22;1.70;;;29.70;55.10;;;;;;5135516;27;20021;-62
2023/08/26 01:03:08;;;;;;;2.97;1.85;;;29.70;55.60;;;;;;5136029;27;20525;-63
2023/08/26 01:05:34;;;;;;;2.35;1.80;;;29.70;55.10;;;;;;5128005;27;20065;-63
2023/08/26 01:08:02;;;;;;;2.60;1.90;;;29.70;55.10;;;;;;5135796;27;20027;-62
2023/08/26 01:10:59;;;;;;;2.90;1.80;;;29.60;55.10;;;;;;5136154;27;20027;-62
2023/08/26 01:13:30;;;;;;;2.90;2.00;;;29.60;55.10;;;;;;5131483;27;20039;-63
2023/08/26 01:15:57;;;;;;;2.33;1.77;;;29.60;55.10;;;;;;5135320;27;20492;-63
2023/08/26 01:18:24;;;;;;;2.58;1.90;;;29.60;55.10;;;;;;5136117;27;20027;-63
2023/08/26 01:20:49;;;;;;;2.40;1.90;;;29.50;55.10;;;;;;5133933;27;20030;-63
2023/08/26 01:23:20;;;;;;;2.88;1.90;;;29.50;55.10;;;;;;5135703;27;20020;-63
2023/08/26 01:25:46;;;;;;;2.42;1.80;;;29.50;55.10;;;;;;5134373;27;20030;-63
2023/08/26 01:28:13;;;;;;;2.35;1.77;;;29.50;55.20;;;;;;5132685;27;20030;-63
2023/08/26 01:30:39;;;;;;;2.00;1.70;;;29.50;55.20;;;;;;5133735;27;20031;-63
2023/08/26 01:33:16;;;;;;;3.03;1.80;;;29.50;55.20;;;;;;5136085;27;20083;-62
2023/08/26 01:35:46;;;;;;;2.55;1.70;;;29.50;55.30;;;;;;5115171;27;20077;-63
2023/08/26 01:38:13;;;;;;;2.90;1.80;;;29.50;55.30;;;;;;5134485;27;20023;-62
2023/08/26 01:40:42;;;;;;;2.22;1.50;;;29.40;55.30;;;;;;5132454;27;20384;-63
2023/08/26 01:43:09;;;;;;;2.10;1.63;;;29.40;55.30;;;;;;5131838;27;20083;-63
2023/08/26 01:45:35;;;;;;;2.30;1.58;;;29.40;55.30;;;;;;5134737;27;20044;-63
2023/08/26 01:48:00;;;;;;;2.38;1.73;;;29.40;55.30;;;;;;5135134;27;20079;-62
2023/08/26 01:50:26;;;;;;;2.25;1.70;;;29.40;55.40;;;;;;5134459;27;20043;-63
2023/08/26 01:52:51;;;;;;;2.13;1.52;;;29.40;55.40;;;;;;5135184;27;20046;-63
2023/08/26 01:55:17;;;;;;;2.00;1.60;;;29.30;55.40;;;;;;5131862;27;20412;-63
2023/08/26 01:57:42;;;;;;;1.98;1.60;;;29.30;55.50;;;;;;5131783;27;20074;-63
2023/08/26 02:00:08;;;;;;;2.50;1.85;;;29.30;55.50;;;;;;5134879;27;20027;-63
2023/08/26 02:02:34;;;;;;;1.92;1.50;;;29.30;55.50;;;;;;5134105;27;20499;-63
2023/08/26 02:05:00;;;;;;;2.05;1.60;;;29.30;55.60;;;;;;5133732;27;20093;-63
2023/08/26 02:07:25;;;;;;;2.35;1.75;;;29.30;55.60;;;;;;5134015;27;20038;-61
2023/08/26 02:09:51;;;;;;;1.83;1.52;;;29.30;56.20;;;;;;5133692;27;20031;-62
2023/08/26 02:12:16;;;;;;;2.45;1.70;;;29.20;55.60;;;;;;5134733;27;20039;-63
2023/08/26 02:14:42;;;;;;;2.40;1.63;;;29.30;55.70;;;;;;5130889;27;20027;-61
2023/08/26 02:17:08;;;;;;;2.17;1.50;;;29.30;55.70;;;;;;5116847;27;20050;-62
2023/08/26 02:19:34;;;;;;;2.15;1.55;;;29.20;55.70;;;;;;5134118;27;20027;-62
2023/08/26 02:22:00;;;;;;;2.47;1.83;;;29.20;55.70;;;;;;5133790;27;20034;-61
2023/08/26 02:24:26;;;;;;;2.20;1.70;;;29.20;55.70;;;;;;5131626;27;20016;-61
2023/08/26 02:26:52;;;;;;;1.70;1.45;;;29.10;55.70;;;;;;5133170;27;20030;-63
2023/08/26 02:29:17;;;;;;;3.13;1.90;;;29.10;55.70;;;;;;5132689;27;20351;-63
2023/08/26 02:31:43;;;;;;;2.50;1.85;;;29.10;55.70;;;;;;5132752;27;20356;-63
2023/08/26 02:34:09;;;;;;;2.28;1.60;;;29.10;55.70;;;;;;5133059;27;20025;-63
2023/08/26 02:36:35;;;;;;;1.88;1.50;;;29.10;55.80;;;;;;5132129;27;20046;-62
2023/08/26 02:39:00;;;;;;;2.28;1.60;;;29.10;55.80;;;;;;5131994;27;20022;-61
2023/08/26 02:41:26;;;;;;;2.40;1.70;;;29.10;55.80;;;;;;5131706;27;20023;-61
2023/08/26 02:43:51;;;;;;;2.60;1.80;;;29.10;55.90;;;;;;5132280;27;20103;-61
2023/08/26 02:46:17;;;;;;;2.13;1.60;;;29.10;55.90;;;;;;5133969;27;20034;-63
2023/08/26 02:48:43;;;;;;;2.47;1.70;;;29.00;55.80;;;;;;5134567;27;20356;-61
2023/08/26 02:51:08;;;;;;;2.20;1.70;;;29.00;55.90;;;;;;5132466;27;20049;-62
2023/08/26 02:53:34;;;;;;;2.22;1.60;;;29.00;55.90;;;;;;5133195;27;20031;-62
2023/08/26 02:56:00;;;;;;;2.25;1.67;;;29.00;55.90;;;;;;5133891;27;20030;-62
2023/08/26 02:58:26;;;;;;;1.80;1.50;;;29.00;55.90;;;;;;5131929;27;20028;-61
2023/08/26 03:00:52;;;;;;;2.10;1.50;;;29.00;55.90;;;;;;5133826;27;20079;-61
2023/08/26 03:03:18;;;;;;;2.08;1.60;;;29.00;56.00;;;;;;5133637;27;20117;-62
2023/08/26 03:05:44;;;;;;;1.90;1.50;;;29.00;56.00;;;;;;5135214;27;20079;-61
2023/08/26 03:08:09;;;;;;;1.95;1.60;;;29.00;56.00;;;;;;5132215;27;20373;-62
2023/08/26 03:10:35;;;;;;;2.30;1.60;;;29.00;56.00;;;;;;5134194;27;20038;-61
2023/08/26 03:13:01;;;;;;;2.00;1.50;;;28.90;55.90;;;;;;5133487;27;20027;-62
2023/08/26 03:15:27;;;;;;;2.17;1.52;;;28.90;56.00;;;;;;5131718;27;20034;-61
2023/08/26 03:17:53;;;;;;;2.00;1.65;;;28.90;56.00;;;;;;5132557;27;20019;-63
2023/08/26 03:20:19;;;;;;;2.10;1.52;;;28.90;56.00;;;;;;5135013;27;20023;-62
2023/08/26 03:22:45;;;;;;;2.17;1.60;;;28.90;56.00;;;;;;5132314;27;20036;-62
2023/08/26 03:25:11;;;;;;;1.98;1.50;;;28.90;56.00;;;;;;5132321;27;20024;-62
2023/08/26 03:27:37;;;;;;;2.03;1.58;;;28.90;56.00;;;;;;5132240;27;20532;-62
2023/08/26 03:30:03;;;;;;;2.10;1.60;;;28.90;56.00;;;;;;5131920;27;20058;-63
2023/08/26 03:32:29;;;;;;;2.20;1.60;;;28.90;56.10;;;;;;5132408;27;20024;-63
2023/08/26 03:34:54;;;;;;;2.00;1.55;;;28.90;56.10;;;;;;5132189;27;20032;-63
2023/08/26 03:37:20;;;;;;;2.30;1.60;;;28.90;56.10;;;;;;5129666;27;20059;-62
2023/08/26 03:39:46;;;;;;;2.15;1.70;;;28.90;56.10;;;;;;5131940;27;20080;-63
2023/08/26 03:42:11;;;;;;;1.83;1.60;;;28.80;56.00;;;;;;5131264;27;20494;-62
2023/08/26 03:44:37;;;;;;;2.17;1.60;;;28.80;56.10;;;;;;5130846;27;20031;-63
2023/08/26 03:47:03;;;;;;;1.60;1.40;;;28.80;56.10;;;;;;5132402;27;20102;-61
2023/08/26 03:49:28;;;;;;;1.75;1.38;;;28.80;56.10;;;;;;5124197;28;20027;-62
2023/08/26 03:51:54;;;;;;;1.60;1.30;;;28.80;56.10;;;;;;5132193;28;20046;-62
2023/08/26 03:54:20;;;;;;;2.00;1.60;;;28.70;56.00;;;;;;5131553;28;20477;-62
2023/08/26 03:56:46;;;;;;;1.70;1.30;;;28.70;56.10;;;;;;5132091;28;20035;-63
2023/08/26 03:59:11;;;;;;;2.40;1.60;;;28.70;56.10;;;;;;5130996;28;20562;-61
2023/08/26 04:01:37;;;;;;;2.10;1.50;;;28.70;56.10;;;;;;5130257;28;20031;-62
2023/08/26 04:04:03;;;;;;;2.00;1.50;;;28.70;56.60;;;;;;5136419;27;20027;-61
2023/08/26 04:06:28;;;;;;;1.73;1.50;;;28.70;56.60;;;;;;5125848;27;20091;-62
2023/08/26 04:08:54;;;;;;;1.77;1.30;;;28.70;56.20;;;;;;5136225;27;20035;-62
2023/08/26 04:11:20;;;;;;;1.77;1.42;;;28.70;56.20;;;;;;5136320;27;20027;-62
2023/08/26 04:13:45;;;;;;;2.58;1.50;;;28.70;56.20;;;;;;5133136;27;20031;-62
2023/08/26 04:16:11;;;;;;;1.73;1.42;;;28.70;56.20;;;;;;5136777;27;20028;-62
2023/08/26 04:18:37;;;;;;;2.30;1.60;;;28.70;56.20;;;;;;5134884;27;20038;-61
2023/08/26 04:21:03;;;;;;;1.88;1.50;;;28.70;56.20;;;;;;5136860;27;20432;-62
2023/08/26 04:23:30;;;;;;;1.60;1.48;;;28.70;56.20;;;;;;5138718;27;20027;-61
2023/08/26 04:26:02;;;;;;;2.47;1.50;;;28.60;56.20;;;;;;5137883;27;20115;-61
2023/08/26 04:28:29;;;;;;;2.03;1.50;;;28.60;56.20;;;;;;5136025;27;20029;-63
2023/08/26 04:30:56;;;;;;;2.08;1.40;;;28.60;56.20;;;;;;5133821;27;20031;-63
2023/08/26 04:33:21;;;;;;;1.95;1.40;;;28.60;56.20;;;;;;5138381;27;20027;-63
2023/08/26 04:35:47;;;;;;;1.65;1.38;;;28.60;56.20;;;;;;5135146;27;20027;-63
2023/08/26 04:38:13;;;;;;;1.85;1.48;;;28.60;56.20;;;;;;5135778;27;20046;-63
2023/08/26 04:40:41;;;;;;;2.03;1.50;;;28.60;56.20;;;;;;5135532;27;20031;-62
2023/08/26 04:43:08;;;;;;;2.28;1.45;;;28.60;56.20;;;;;;5135031;27;20455;-63
2023/08/26 04:45:34;;;;;;;2.33;1.63;;;28.60;56.20;;;;;;5132562;27;20030;-63
2023/08/26 04:48:00;;;;;;;2.05;1.52;;;28.60;56.20;;;;;;5135159;27;20023;-64
2023/08/26 04:50:26;;;;;;;2.25;1.58;;;28.60;56.20;;;;;;5134715;27;20031;-64
2023/08/26 04:52:51;;;;;;;1.58;1.40;;;28.60;56.20;;;;;;5134296;27;20031;-64
2023/08/26 04:55:17;;;;;;;2.22;1.52;;;28.60;56.30;;;;;;5135890;27;20023;-63
2023/08/26 04:57:43;;;;;;;1.55;1.38;;;28.60;56.30;;;;;;5134143;27;20039;-63
2023/08/26 05:00:10;;;;;;;1.90;1.42;;;28.50;56.20;;;;;;5133866;27;20031;-61
2023/08/26 05:02:39;;;;;;;1.70;1.40;;;28.60;56.30;;;;;;5134248;27;20084;-61
2023/08/26 05:05:05;;;;;;;1.92;1.50;;;28.50;56.30;;;;;;5136970;27;20028;-62
2023/08/26 05:07:32;;;;;;;1.88;1.40;;;28.50;56.20;;;;;;5135179;27;20088;-62
2023/08/26 05:09:57;;;;;;;2.00;1.40;;;28.50;56.20;;;;;;5134619;27;20028;-61
2023/08/26 05:12:23;;;;;;;2.15;1.52;;;28.50;56.30;;;;;;5125518;27;20031;-61
2023/08/26 05:14:49;;;;;;;1.75;1.40;;;28.50;56.20;;;;;;5132600;27;20062;-62
2023/08/26 05:17:16;;;;;;;2.95;1.60;;;28.50;56.20;;;;;;5134565;27;20027;-61
2023/08/26 05:19:42;;;;;;;1.75;1.40;;;28.50;56.30;;;;;;5135024;27;20019;-61
2023/08/26 05:22:08;;;;;;;1.45;1.25;;;28.50;56.30;;;;;;5134954;27;20107;-62
2023/08/26 05:24:34;;;;;;;2.10;1.60;;;28.50;56.30;;;;;;5133195;27;20020;-63
2023/08/26 05:26:59;;;;;;;1.80;1.50;;;28.50;56.30;;;;;;5133227;27;20030;-61
2023/08/26 05:29:25;;;;;;;1.65;1.35;;;28.50;56.30;;;;;;5135889;27;20036;-62
2023/08/26 05:31:51;;;;;;;1.98;1.50;;;28.50;56.30;;;;;;5134705;27;20098;-61
2023/08/26 05:34:16;;;;;;;2.22;1.40;;;28.50;56.40;;;;;;5133568;27;20036;-62
2023/08/26 05:36:42;;;;;;;1.75;1.50;;;28.50;56.30;;;;;;5137895;27;20027;-62
2023/08/26 05:39:07;;;;;;;1.60;1.38;;;28.50;56.40;;;;;;5133521;27;20051;-63
2023/08/26 05:41:33;;;;;;;1.65;1.33;;;28.40;56.30;;;;;;5133715;27;20457;-63
2023/08/26 05:43:59;;;;;;;2.13;1.50;;;28.40;56.30;;;;;;5134578;27;20023;-64
2023/08/26 05:46:24;;;;;;;2.13;1.50;;;28.40;56.30;;;;;;5133371;27;20068;-63
2023/08/26 05:48:50;;;;;;;1.48;1.27;;;28.40;56.30;;;;;;5135384;27;20035;-63
2023/08/26 05:51:15;;;;;;;1.60;1.40;;;28.40;56.30;;;;;;5135441;27;20039;-63
2023/08/26 05:53:41;;;;;;;1.63;1.40;;;28.40;56.30;;;;;;5137015;27;20041;-63
2023/08/26 05:56:06;;;;;;;1.90;1.50;;;28.40;56.30;;;;;;5133079;27;20038;-63
2023/08/26 05:58:32;;;;;;;2.10;1.60;;;28.40;56.30;;;;;;5137347;27;20027;-65
2023/08/26 06:00:58;;;;;;;1.63;1.40;;;28.40;56.30;;;;;;5132839;27;20039;-65
2023/08/26 06:03:23;;;;;;;1.67;1.45;;;28.40;56.30;;;;;;5134724;27;20031;-65
2023/08/26 06:05:49;;;;;;;1.70;1.27;;;28.40;56.40;;;;;;5133688;27;20027;-65
2023/08/26 06:08:15;;;;;;;2.00;1.40;;;28.40;56.30;;;;;;5132906;27;20042;-63
2023/08/26 06:10:40;;;;;;;1.80;1.30;;;28.40;56.40;;;;;;5135566;27;20038;-63
2023/08/26 06:13:06;;;;;;;2.00;1.58;;;28.40;56.40;;;;;;5133832;27;20027;-64
2023/08/26 06:15:31;;;;;;;1.80;1.40;;;28.40;56.40;;;;;;5132407;27;20035;-63
2023/08/26 06:17:59;;;;;;;2.10;1.40;;;28.40;56.40;;;;;;5133972;27;20516;-63
2023/08/26 06:20:25;;;;;;;2.38;1.50;;;28.40;56.40;;;;;;5133554;27;20028;-63
2023/08/26 06:22:51;;;;;;;1.50;1.30;;;28.40;56.40;;;;;;5133087;27;20052;-63
2023/08/26 06:25:17;;;;;;;1.70;1.40;;;28.40;56.40;;;;;;5118724;27;20031;-63
2023/08/26 06:27:42;;;;;;;1.95;1.50;;;28.40;56.40;;;;;;5134125;27;20020;-63
2023/08/26 06:30:09;;;;;;;1.80;1.45;;;28.40;56.40;;;;;;5130100;27;20655;-63
2023/08/26 06:32:35;;;;;;;1.90;1.52;;;28.30;56.30;;;;;;5131144;27;20020;-63
2023/08/26 06:35:00;;;;;;;2.03;1.52;;;28.30;56.30;;;;;;5133357;27;20085;-63
2023/08/26 06:37:26;;;;;;;1.83;1.45;;;28.30;56.30;;;;;;5133035;27;20045;-63
2023/08/26 06:39:52;;;;;;;1.80;1.42;;;28.30;56.30;;;;;;5133495;27;20028;-63
2023/08/26 06:42:18;;;;;;;1.92;1.50;;;28.30;56.30;;;;;;5132006;27;20020;-64
2023/08/26 06:44:43;;;;;;;2.10;1.50;;;28.30;56.30;;;;;;5133061;27;20024;-63
2023/08/26 06:47:09;;;;;;;1.80;1.50;;;28.30;56.30;;;;;;5134307;27;20027;-63
2023/08/26 06:49:35;;;;;;;1.80;1.40;;;28.30;56.30;;;;;;5133234;27;20031;-62
2023/08/26 06:52:01;;;;;;;1.42;1.17;;;28.30;56.40;;;;;;5132389;27;20023;-63
2023/08/26 06:54:27;;;;;;;1.80;1.30;;;28.30;56.40;;;;;;5134219;27;20020;-63
2023/08/26 06:56:52;;;;;;;1.70;1.30;;;28.30;56.40;;;;;;5133864;27;20028;-63
2023/08/26 06:59:18;;;;;;;2.17;1.40;;;28.30;56.40;;;;;;5134222;27;20038;-63
2023/08/26 07:01:44;;;;;;;1.60;1.30;;;28.30;56.40;;;;;;5132973;27;20092;-63
2023/08/26 07:04:11;;;;;;;1.75;1.45;;;28.30;56.40;;;;;;5132638;27;20028;-63
2023/08/26 07:06:37;;;;;;;1.98;1.45;;;28.30;56.40;;;;;;5132678;27;20295;-63
2023/08/26 07:09:04;;;;;;;1.65;1.25;;;28.30;56.40;;;;;;5134184;27;20031;-66
2023/08/26 07:11:30;;;;;;;1.58;1.35;;;28.30;56.40;;;;;;5133841;27;20054;-66
2023/08/26 07:13:57;;;;;;;1.65;1.30;;;28.30;56.40;;;;;;5132508;27;20061;-66
2023/08/26 07:16:24;;;;;;;1.63;1.35;;;28.30;56.40;;;;;;5130841;27;20081;-66
2023/08/26 07:18:50;;;;;;;1.98;1.50;;;28.30;56.40;;;;;;5131907;27;20019;-63
2023/08/26 07:21:16;;;;;;;1.55;1.35;;;28.30;56.40;;;;;;5131651;27;20057;-62
2023/08/26 07:23:41;;;;;;;1.70;1.30;;;28.20;56.40;;;;;;5131528;27;20019;-62
2023/08/26 07:26:10;;;;;;;1.63;1.30;;;28.20;56.40;;;;;;5133031;27;20043;-61
2023/08/26 07:28:36;;;;;;;1.70;1.38;;;28.20;56.40;;;;;;5119057;28;20024;-63
2023/08/26 07:31:04;;;;;;;1.70;1.35;;;28.20;56.40;;;;;;5129161;27;20038;-61
2023/08/26 07:33:30;;;;;;;2.05;1.60;;;28.30;56.50;;;;;;5132530;27;20027;-62
2023/08/26 07:36:07;;;;;;;2.03;1.50;;;28.20;56.40;;;;;;5129077;27;20654;-61
2023/08/26 07:38:33;;;;;;;1.50;1.35;;;28.20;56.40;;;;;;5131802;27;20015;-63
2023/08/26 07:40:59;;;;;;;1.58;1.33;;;28.20;56.40;;;;;;5133521;27;20034;-63
2023/08/26 07:43:24;;;;;;;1.77;1.40;;;28.20;56.40;;;;;;5131521;28;20108;-62
2023/08/26 07:45:50;;;;;;;1.52;1.27;;;28.20;56.40;;;;;;5131997;27;20027;-64
2023/08/26 07:48:16;;;;;;;2.00;1.65;;;28.20;56.40;;;;;;5132439;27;20118;-61
2023/08/26 07:50:42;;;;;;;1.98;1.42;;;28.20;56.40;;;;;;5129509;27;20074;-62
2023/08/26 07:53:07;;;;;;;2.00;1.60;;;28.20;56.40;;;;;;5131831;28;20054;-62
2023/08/26 07:55:33;;;;;;;1.80;1.40;;;28.20;56.40;;;;;;5132051;28;20042;-62
2023/08/26 07:57:59;;;;;;;2.05;1.45;;;28.20;56.40;;;;;;5132006;28;20491;-63
2023/08/26 08:00:24;;;;;;;1.45;1.30;;;28.20;56.40;;;;;;5130267;28;20035;-64
2023/08/26 08:02:50;;;;;;;1.75;1.40;;;28.20;56.50;;;;;;5131225;28;20035;-63
2023/08/26 08:05:16;;;;;;;2.10;1.50;;;28.20;56.50;;;;;;5128174;28;20189;-63
2023/08/26 08:07:42;;;;;;;2.10;1.50;;;28.20;56.50;;;;;;5132852;28;20035;-63
2023/08/26 08:10:11;;;;;;;1.73;1.30;;;28.20;56.50;;;;;;5131958;28;20308;-63
2023/08/26 08:12:36;;;;;;;1.98;1.40;;;28.20;56.50;;;;;;5131302;28;20425;-63
2023/08/26 08:15:03;;;;;;;1.50;1.30;;;28.10;56.40;;;;;;5130786;28;20051;-64
2023/08/26 08:17:32;;;;;;;1.60;1.40;;;28.10;56.40;;;;;;5131101;28;20079;-61
2023/08/26 08:19:58;;;;;;;1.92;1.33;;;28.10;56.40;;;;;;5130063;28;20659;-62
2023/08/26 08:22:35;;;;;;;1.73;1.33;;;28.10;56.40;;;;;;5132177;28;20031;-62
2023/08/26 08:25:01;;;;;;;1.58;1.30;;;28.20;56.50;;;;;;5130590;28;20043;-62
2023/08/26 08:27:27;;;;;;;1.67;1.42;;;28.20;56.40;;;;;;5133073;28;20046;-63
2023/08/26 08:29:53;;;;;;;1.73;1.35;;;28.10;56.40;;;;;;5133065;28;20023;-63
2023/08/26 08:32:18;;;;;;;1.77;1.27;;;28.10;56.40;;;;;;5129547;28;20023;-63
2023/08/26 08:34:44;;;;;;;1.70;1.50;;;28.10;56.40;;;;;;5130867;28;20038;-63
2023/08/26 08:37:10;;;;;;;1.58;1.40;;;28.20;57.00;;;;;;5129889;28;20036;-63
2023/08/26 08:39:36;;;;;;;1.77;1.40;;;28.10;56.40;;;;;;5133375;28;20039;-64
2023/08/26 08:42:04;;;;;;;1.90;1.45;;;28.10;56.40;;;;;;5112947;28;20034;-64
2023/08/26 08:44:34;;;;;;;1.92;1.55;;;28.10;56.40;;;;;;5129944;28;20115;-63
2023/08/26 08:47:04;;;;;;;1.85;1.25;;;28.10;56.50;;;;;;5128514;28;20027;-64
2023/08/26 08:49:30;;;;;;;2.15;1.50;;;28.10;56.40;;;;;;5129541;27;20091;-63
2023/08/26 08:51:57;;;;;;;2.05;1.42;;;28.10;56.40;;;;;;5115726;28;20100;-63
2023/08/26 08:54:25;;;;;;;2.42;1.40;;;28.10;56.40;;;;;;5114853;28;20024;-63
2023/08/26 08:56:52;;;;;;;1.77;1.55;;;28.10;56.40;;;;;;5115691;28;20016;-63
2023/08/26 08:59:20;;;;;;;1.98;1.40;;;28.10;56.50;;;;;;5114626;28;20054;-63
2023/08/26 09:01:46;;;;;;;1.60;1.27;;;28.10;56.40;;;;;;5115821;28;20036;-63
2023/08/26 09:04:12;;;;;;;1.75;1.33;;;28.10;56.40;;;;;;5113313;28;20016;-64
2023/08/26 09:06:38;;;;;;;1.75;1.40;;;28.10;56.40;;;;;;5113389;28;20036;-63
2023/08/26 09:09:10;;;;;;;2.17;1.60;;;28.10;56.40;;;;;;5114450;28;20432;-63
2023/08/26 09:11:37;;;;;;;1.83;1.35;;;28.10;56.40;;;;;;5114055;28;20498;-63
2023/08/26 09:14:04;;;;;;;2.20;1.40;;;28.10;56.40;;;;;;5115409;28;20024;-63
2023/08/26 09:16:43;;;;;;;1.98;1.40;;;28.10;56.40;;;;;;5112159;28;20122;-64
2023/08/26 09:19:12;;;;;;;;;;;28.10;56.40;;;;;;5114607;28;20024;-63
2023/08/26 09:21:42;;;;;;;;;;;28.10;56.40;;;;;;5116502;28;19907;-63
2023/08/26 09:24:13;;;;;;;1.80;1.42;;;28.10;56.40;;;;;;5115654;28;19968;-64
2023/08/26 09:26:40;;;;;;;1.35;1.20;;;28.10;56.40;;;;;;5112764;28;20050;-63
2023/08/26 09:29:18;;;;;;;1.63;1.20;;;28.10;56.40;;;;;;5131083;27;20119;-63
2023/08/26 09:31:48;;;;;;;1.60;1.25;;;28.10;56.40;;;;;;5114534;28;20023;-63
2023/08/26 09:34:28;;;;;;;2.00;1.30;;;28.10;56.90;;;;;;5117159;28;20025;-63
2023/08/26 09:36:54;;;;;;;1.90;1.38;;;28.10;56.40;;;;;;5113551;28;20403;-63
2023/08/26 09:39:23;;;;;;;1.70;1.20;;;28.10;56.40;;;;;;5114091;28;20035;-64
2023/08/26 09:41:49;;;;;;;3.17;1.60;;;28.10;56.40;;;;;;5114324;28;20031;-63
2023/08/26 09:44:17;;;;;;;1.50;1.20;;;28.10;56.40;;;;;;5112862;28;20055;-65
2023/08/26 09:46:44;;;;;;;1.90;1.30;;;28.10;56.40;;;;;;5111714;28;20023;-63
2023/08/26 09:49:13;;;;;;;1.70;1.33;;;28.10;56.40;;;;;;5114205;28;20107;-64
2023/08/26 09:51:46;;;;;;;1.70;1.30;;;28.10;56.40;;;;;;5112555;28;20085;-63
2023/08/26 09:54:15;;;;;;;2.00;1.38;;;28.10;56.40;;;;;;5114013;28;20047;-64
2023/08/26 09:56:40;;;;;;;1.30;1.20;;;28.10;56.40;;;;;;5114005;28;20528;-64
2023/08/26 09:59:06;;;;;;;1.65;1.35;;;28.10;56.40;;;;;;5112781;28;20059;-64
2023/08/26 10:01:34;;;;;;;1.50;1.20;;;28.10;56.40;;;;;;5111682;28;20028;-64
2023/08/26 10:04:05;;;;;;;1.65;1.20;;;28.10;56.40;;;;;;5111609;28;20084;-63
2023/08/26 10:06:36;;;;;;;1.83;1.30;;;28.10;56.40;;;;;;5115659;28;20028;-64
2023/08/26 10:09:08;;;;;;;1.75;1.35;;;28.10;56.40;;;;;;5112815;28;20107;-63
2023/08/26 10:11:40;;;;;;;1.80;1.30;;;28.10;56.40;;;;;;5112981;28;20036;-63
2023/08/26 10:14:11;;;;;;;1.40;1.20;;;28.10;56.40;;;;;;5112281;28;20037;-64
2023/08/26 10:16:41;;;;;;;1.60;1.30;;;28.10;56.40;;;;;;5111356;28;20031;-63
2023/08/26 10:19:08;;;;;;;1.48;1.20;;;28.10;56.40;;;;;;5111722;28;20042;-66
2023/08/26 10:21:35;;;;;;;2.00;1.30;;;28.10;56.40;;;;;;5111546;28;20462;-65
2023/08/26 10:24:01;;;;;;;1.55;1.27;;;28.10;56.40;;;;;;5113569;28;20101;-66
2023/08/26 10:26:27;;;;;;;1.20;1.10;;;28.10;56.40;;;;;;5111184;28;20028;-65
2023/08/26 10:28:55;;;;;;;1.63;1.30;;;28.10;56.40;;;;;;5113797;28;20031;-66
2023/08/26 10:31:30;;;;;;;1.40;1.20;;;28.10;56.40;;;;;;5109745;28;20050;-66
2023/08/26 10:34:01;;;;;;;1.80;1.30;;;28.10;56.40;;;;;;5111240;28;20032;-65
2023/08/26 10:36:27;;;;;;;2.20;1.40;;;28.10;56.40;;;;;;5145000;27;20057;-66
2023/08/26 10:38:59;;;;;;;1.73;1.30;;;28.10;56.40;;;;;;5111523;28;20149;-64
2023/08/26 10:41:26;;;;;;;1.60;1.30;;;28.10;56.30;;;;;;5112289;28;20028;-64
2023/08/26 10:44:01;;;;;;;1.88;1.40;;;28.10;56.30;;;;;;5111602;28;20024;-65
2023/08/26 10:46:55;;;;;;;1.88;1.23;;;28.10;56.30;;;;;;5111111;28;20453;-64
2023/08/26 10:49:28;;;;;;;1.60;1.10;;;28.10;56.30;;;;;;5112784;27;20035;-62
2023/08/26 10:52:18;;;;;;;1.77;1.33;;;28.10;56.30;;;;;;5133024;27;20106;-62
2023/08/26 10:54:45;;;;;;;1.60;1.25;;;28.10;56.30;;;;;;5131888;27;20024;-63
2023/08/26 10:57:11;;;;;;;1.42;1.10;;;28.10;56.30;;;;;;5133298;27;20050;-62
2023/08/26 10:59:40;;;;;;;1.55;1.20;;;28.10;56.30;;;;;;5132810;27;20556;-62
2023/08/26 11:02:09;;;;;;;1.58;1.30;;;28.10;56.30;;;;;;5129591;27;20020;-62
2023/08/26 11:04:44;;;;;;;1.50;1.30;;;28.10;56.30;;;;;;5133461;27;20034;-62
2023/08/26 11:07:16;;;;;;;1.60;1.10;;;28.10;56.40;;;;;;5132334;27;20038;-62
2023/08/26 11:09:42;;;;;;;1.77;1.27;;;28.10;56.40;;;;;;5132860;27;20055;-62
2023/08/26 11:12:29;;;;;;;1.60;1.25;;;28.10;56.30;;;;;;5131769;27;20046;-62
2023/08/26 11:15:05;;;;;;;1.58;1.30;;;28.10;56.30;;;;;;5121586;27;20023;-62
2023/08/26 11:17:31;;;;;;;1.17;1.08;;;28.10;56.30;;;;;;5130475;27;20023;-63
2023/08/26 11:19:57;;;;;;;1.90;1.20;;;28.10;56.30;;;;;;5130694;27;20035;-62
2023/08/26 11:22:26;;;;;;;1.50;1.30;;;28.10;56.30;;;;;;5131607;27;20015;-63
2023/08/26 11:24:52;;;;;;;1.50;1.10;;;28.10;56.30;;;;;;5131899;27;20025;-62
2023/08/26 11:27:18;;;;;;;1.33;1.10;;;28.10;56.30;;;;;;5132127;27;20031;-62
2023/08/26 11:29:44;;;;;;;1.65;1.20;;;28.10;56.30;;;;;;5131784;27;20031;-62
2023/08/26 11:32:10;;;;;;;1.23;1.10;;;28.10;56.30;;;;;;5129705;27;20417;-61
2023/08/26 11:34:36;;;;;;;1.50;1.10;;;28.10;56.30;;;;;;5131169;27;20362;-61
2023/08/26 11:37:02;;;;;;;1.20;1.10;;;28.10;56.30;;;;;;5132345;27;20032;-62
2023/08/26 11:39:34;;;;;;;1.30;1.10;;;28.10;56.30;;;;;;5130176;27;20034;-62
2023/08/26 11:42:15;;;;;;;1.40;1.02;;;28.10;56.30;;;;;;5130517;27;20034;-62
2023/08/26 11:44:45;;;;;;;1.80;1.13;;;28.10;56.30;;;;;;5132142;27;20031;-63
2023/08/26 11:47:12;;;;;;;1.40;1.08;;;28.10;56.40;;;;;;5130489;27;20104;-64
2023/08/26 11:49:39;;;;;;;2.00;1.30;;;28.10;56.40;;;;;;5134016;27;20123;-64
2023/08/26 11:52:06;;;;;;;1.60;1.30;;;28.10;56.40;;;;;;5131823;27;20043;-64
2023/08/26 11:54:31;;;;;;;1.30;1.10;;;28.10;56.40;;;;;;5131116;28;20045;-64
2023/08/26 11:56:58;;;;;;;1.23;1.05;;;28.10;56.40;;;;;;5131001;28;20107;-61
2023/08/26 11:59:24;;;;;;;1.77;1.30;;;28.10;56.40;;;;;;5133008;28;20091;-65
2023/08/26 12:01:50;;;;;;;1.77;1.30;;;28.10;56.40;;;;;;5131863;28;20062;-65
2023/08/26 12:04:16;;;;;;;1.20;1.10;;;28.10;56.40;;;;;;5131755;28;20517;-65
2023/08/26 12:06:42;;;;;;;1.20;1.10;;;28.10;56.40;;;;;;5131744;28;20459;-64
2023/08/26 12:09:08;;;;;;;1.25;1.10;;;28.10;56.40;;;;;;5130985;28;20481;-65
2023/08/26 12:11:34;;;;;;;2.30;1.30;;;28.10;56.40;;;;;;5131868;28;20102;-65
2023/08/26 12:14:00;;;;;;;1.30;1.20;;;28.10;56.40;;;;;;5130477;28;20031;-65
2023/08/26 12:16:33;;;;;;;2.00;1.30;;;28.10;56.40;;;;;;5130403;28;20054;-65
2023/08/26 12:19:00;;;;;;;1.60;1.10;;;28.10;56.40;;;;;;5130229;28;20622;-64
2023/08/26 12:21:30;;;;;;;1.90;1.10;;;28.10;56.40;;;;;;5131583;28;20094;-64
2023/08/26 12:23:56;;;;;;;1.30;1.10;;;28.10;56.40;;;;;;5134454;27;20623;-64
2023/08/26 12:26:23;;;;;;;1.20;1.00;;;28.10;56.40;;;;;;5135483;27;20161;-65
2023/08/26 12:28:49;;;;;;;1.60;1.20;;;28.10;56.40;;;;;;5135273;27;20034;-65
2023/08/26 12:31:15;;;;;;;1.30;1.05;;;28.10;56.40;;;;;;5134752;27;20023;-64
2023/08/26 12:33:40;;;;;;;1.40;1.10;;;28.10;56.40;;;;;;5133624;27;20099;-65
2023/08/26 12:36:06;;;;;;;1.70;1.20;;;28.10;56.50;;;;;;5134587;27;20031;-65
2023/08/26 12:38:31;;;;;;;1.50;1.17;;;28.10;56.50;;;;;;5137200;27;20028;-62
2023/08/26 12:40:58;;;;;;;1.33;1.20;;;28.10;56.50;;;;;;5135721;27;20048;-62
2023/08/26 12:43:23;;;;;;;1.70;1.20;;;28.10;56.50;;;;;;5134845;27;20086;-61
2023/08/26 12:45:49;;;;;;;1.38;1.20;;;28.10;56.50;;;;;;5135532;27;20034;-61
2023/08/26 12:48:15;;;;;;;1.90;1.10;;;28.10;56.50;;;;;;5134778;27;20028;-61